Terminal Aerodrome Forecast
Issued by NWS Sterling, VA

Current Version | Previous Version | Graphics & Text | Print | Product List | Glossary On
Versions: 1 2 3 4 5 6 7 8 9 10 11 12 13 14
000
FTUS41 KLWX 240500
TAFMRB
TAF
KMRB 240535Z 2406/2506 07006KT 3SM -RA OVC008 WS020/16050KT
     FM240800 16011KT 3SM -RA BR OVC008 WS020/18040KT
     FM240900 18013KT 3SM -RA BR OVC008 WS020/20040KT
     FM241100 19010KT 3SM BR OVC008
     FM241500 19013KT P6SM BKN035
     FM241800 19021G33KT P6SM SCT050
     FM242100 20018G30KT P6SM SCT150
     FM250000 19013KT P6SM SCT150
     FM250300 23009KT P6SM SCT150
     FM250500 27009KT P6SM SCT150=

USA.gov is the U.S. government's official web portal to all federal, state and local government web resources and services.